sensor_id;sensor_type;location;lat;lon;timestamp;P1;durP1;ratioP1;P2;durP2;ratioP2
74042;SDS011;62384;53.600;10.040;2023-04-25T00:01:08;13.05;;;5.53;;
74042;SDS011;62384;53.600;10.040;2023-04-25T00:03:33;10.73;;;4.47;;
74042;SDS011;62384;53.600;10.040;2023-04-25T00:06:00;7.55;;;3.60;;
74042;SDS011;62384;53.600;10.040;2023-04-25T00:08:28;8.90;;;4.07;;
74042;SDS011;62384;53.600;10.040;2023-04-25T00:10:54;14.15;;;4.50;;
74042;SDS011;62384;53.600;10.040;2023-04-25T00:13:20;8.50;;;3.80;;
74042;SDS011;62384;53.600;10.040;2023-04-25T00:15:46;15.20;;;4.78;;
74042;SDS011;62384;53.600;10.040;2023-04-25T00:18:13;11.27;;;4.00;;
74042;SDS011;62384;53.600;10.040;2023-04-25T00:20:39;12.55;;;4.60;;
74042;SDS011;62384;53.600;10.040;2023-04-25T00:23:05;12.07;;;3.90;;
74042;SDS011;62384;53.600;10.040;2023-04-25T00:25:30;18.20;;;4.00;;
74042;SDS011;62384;53.600;10.040;2023-04-25T00:27:55;10.57;;;3.72;;
74042;SDS011;62384;53.600;10.040;2023-04-25T00:30:21;9.70;;;3.50;;
74042;SDS011;62384;53.600;10.040;2023-04-25T00:32:46;14.45;;;3.08;;
74042;SDS011;62384;53.600;10.040;2023-04-25T00:35:12;16.15;;;4.25;;
74042;SDS011;62384;53.600;10.040;2023-04-25T00:37:37;12.95;;;3.65;;
74042;SDS011;62384;53.600;10.040;2023-04-25T00:40:04;18.92;;;3.00;;
74042;SDS011;62384;53.600;10.040;2023-04-25T00:42:31;14.18;;;3.38;;
74042;SDS011;62384;53.600;10.040;2023-04-25T00:44:56;15.02;;;2.60;;
74042;SDS011;62384;53.600;10.040;2023-04-25T00:47:23;17.98;;;3.50;;
74042;SDS011;62384;53.600;10.040;2023-04-25T00:49:48;16.80;;;2.47;;
74042;SDS011;62384;53.600;10.040;2023-04-25T00:52:13;12.35;;;2.63;;
74042;SDS011;62384;53.600;10.040;2023-04-25T00:54:39;17.85;;;2.40;;
74042;SDS011;62384;53.600;10.040;2023-04-25T00:57:05;18.50;;;3.50;;
74042;SDS011;62384;53.600;10.040;2023-04-25T00:59:30;20.30;;;3.00;;
74042;SDS011;62384;53.600;10.040;2023-04-25T01:01:56;12.18;;;2.83;;
74042;SDS011;62384;53.600;10.040;2023-04-25T01:04:22;17.90;;;2.95;;
74042;SDS011;62384;53.600;10.040;2023-04-25T01:06:48;16.10;;;2.72;;
74042;SDS011;62384;53.600;10.040;2023-04-25T01:09:13;11.40;;;2.55;;
74042;SDS011;62384;53.600;10.040;2023-04-25T01:11:39;22.88;;;3.28;;
74042;SDS011;62384;53.600;10.040;2023-04-25T01:14:05;16.25;;;3.08;;
74042;SDS011;62384;53.600;10.040;2023-04-25T01:16:30;15.20;;;3.38;;
74042;SDS011;62384;53.600;10.040;2023-04-25T01:18:56;17.52;;;4.18;;
74042;SDS011;62384;53.600;10.040;2023-04-25T01:21:22;14.30;;;3.60;;
74042;SDS011;62384;53.600;10.040;2023-04-25T01:23:47;21.75;;;2.80;;
74042;SDS011;62384;53.600;10.040;2023-04-25T01:26:13;14.75;;;2.63;;
74042;SDS011;62384;53.600;10.040;2023-04-25T01:28:39;18.98;;;3.70;;
74042;SDS011;62384;53.600;10.040;2023-04-25T01:31:08;15.50;;;2.95;;
74042;SDS011;62384;53.600;10.040;2023-04-25T01:33:33;18.55;;;4.57;;
74042;SDS011;62384;53.600;10.040;2023-04-25T01:35:59;18.13;;;3.13;;
74042;SDS011;62384;53.600;10.040;2023-04-25T01:38:25;13.75;;;2.90;;
74042;SDS011;62384;53.600;10.040;2023-04-25T01:40:50;20.83;;;3.45;;
74042;SDS011;62384;53.600;10.040;2023-04-25T01:43:17;13.25;;;2.35;;
74042;SDS011;62384;53.600;10.040;2023-04-25T01:45:42;17.58;;;3.55;;
74042;SDS011;62384;53.600;10.040;2023-04-25T01:48:08;12.90;;;2.92;;
74042;SDS011;62384;53.600;10.040;2023-04-25T01:50:37;20.52;;;3.60;;
74042;SDS011;62384;53.600;10.040;2023-04-25T01:53:03;16.67;;;2.92;;
74042;SDS011;62384;53.600;10.040;2023-04-25T01:55:29;21.88;;;3.30;;
74042;SDS011;62384;53.600;10.040;2023-04-25T01:57:55;11.57;;;2.63;;
74042;SDS011;62384;53.600;10.040;2023-04-25T02:00:20;16.98;;;2.83;;
74042;SDS011;62384;53.600;10.040;2023-04-25T02:02:45;11.10;;;3.70;;
74042;SDS011;62384;53.600;10.040;2023-04-25T02:05:11;18.52;;;3.60;;
74042;SDS011;62384;53.600;10.040;2023-04-25T02:07:36;21.02;;;4.70;;
74042;SDS011;62384;53.600;10.040;2023-04-25T02:10:02;17.27;;;3.75;;
74042;SDS011;62384;53.600;10.040;2023-04-25T02:12:28;19.73;;;3.35;;
74042;SDS011;62384;53.600;10.040;2023-04-25T02:14:53;19.42;;;2.97;;
74042;SDS011;62384;53.600;10.040;2023-04-25T02:17:19;14.88;;;2.67;;
74042;SDS011;62384;53.600;10.040;2023-04-25T02:19:46;11.60;;;2.25;;
74042;SDS011;62384;53.600;10.040;2023-04-25T02:22:11;14.48;;;2.70;;
74042;SDS011;62384;53.600;10.040;2023-04-25T02:24:36;10.65;;;2.58;;
74042;SDS011;62384;53.600;10.040;2023-04-25T02:27:01;21.60;;;2.97;;
74042;SDS011;62384;53.600;10.040;2023-04-25T02:29:27;7.85;;;3.13;;
74042;SDS011;62384;53.600;10.040;2023-04-25T02:31:53;11.02;;;2.53;;
74042;SDS011;62384;53.600;10.040;2023-04-25T02:34:18;26.83;;;2.60;;
74042;SDS011;62384;53.600;10.040;2023-04-25T02:36:43;17.75;;;3.63;;
74042;SDS011;62384;53.600;10.040;2023-04-25T02:39:09;13.65;;;2.85;;
74042;SDS011;62384;53.600;10.040;2023-04-25T02:41:35;13.88;;;2.85;;
74042;SDS011;62384;53.600;10.040;2023-04-25T02:44:00;11.23;;;2.70;;
74042;SDS011;62384;53.600;10.040;2023-04-25T02:46:25;13.45;;;2.63;;
74042;SDS011;62384;53.600;10.040;2023-04-25T02:48:50;14.38;;;3.08;;
74042;SDS011;62384;53.600;10.040;2023-04-25T02:51:16;11.40;;;2.55;;
74042;SDS011;62384;53.600;10.040;2023-04-25T02:53:41;17.02;;;2.92;;
74042;SDS011;62384;53.600;10.040;2023-04-25T02:56:07;11.15;;;2.70;;
74042;SDS011;62384;53.600;10.040;2023-04-25T02:58:32;14.30;;;3.58;;
74042;SDS011;62384;53.600;10.040;2023-04-25T03:00:57;17.63;;;3.05;;
74042;SDS011;62384;53.600;10.040;2023-04-25T03:03:23;19.95;;;2.60;;
74042;SDS011;62384;53.600;10.040;2023-04-25T03:05:48;9.85;;;2.20;;
74042;SDS011;62384;53.600;10.040;2023-04-25T03:08:15;15.65;;;3.40;;
74042;SDS011;62384;53.600;10.040;2023-04-25T03:10:41;14.20;;;2.95;;
74042;SDS011;62384;53.600;10.040;2023-04-25T03:13:07;11.48;;;2.85;;
74042;SDS011;62384;53.600;10.040;2023-04-25T03:15:32;15.20;;;3.35;;
74042;SDS011;62384;53.600;10.040;2023-04-25T03:17:57;12.23;;;2.20;;
74042;SDS011;62384;53.600;10.040;2023-04-25T03:20:22;13.40;;;2.55;;
74042;SDS011;62384;53.600;10.040;2023-04-25T03:22:48;11.57;;;2.45;;
74042;SDS011;62384;53.600;10.040;2023-04-25T03:25:13;13.95;;;3.22;;
74042;SDS011;62384;53.600;10.040;2023-04-25T03:27:38;12.18;;;2.28;;
74042;SDS011;62384;53.600;10.040;2023-04-25T03:30:04;10.52;;;2.47;;
74042;SDS011;62384;53.600;10.040;2023-04-25T03:32:30;9.57;;;1.90;;
74042;SDS011;62384;53.600;10.040;2023-04-25T03:34:55;11.65;;;2.13;;
74042;SDS011;62384;53.600;10.040;2023-04-25T03:37:20;8.93;;;2.20;;
74042;SDS011;62384;53.600;10.040;2023-04-25T03:39:46;8.52;;;2.15;;
74042;SDS011;62384;53.600;10.040;2023-04-25T03:42:11;15.75;;;3.17;;
74042;SDS011;62384;53.600;10.040;2023-04-25T03:44:36;10.95;;;2.30;;
74042;SDS011;62384;53.600;10.040;2023-04-25T03:47:01;14.90;;;2.70;;
74042;SDS011;62384;53.600;10.040;2023-04-25T03:49:27;14.40;;;2.90;;
74042;SDS011;62384;53.600;10.040;2023-04-25T03:51:52;18.77;;;2.53;;
74042;SDS011;62384;53.600;10.040;2023-04-25T03:54:17;16.23;;;2.05;;
74042;SDS011;62384;53.600;10.040;2023-04-25T03:56:42;8.00;;;2.28;;
74042;SDS011;62384;53.600;10.040;2023-04-25T03:59:08;10.75;;;2.10;;
74042;SDS011;62384;53.600;10.040;2023-04-25T04:01:33;8.65;;;2.67;;
74042;SDS011;62384;53.600;10.040;2023-04-25T04:03:58;14.18;;;3.30;;
74042;SDS011;62384;53.600;10.040;2023-04-25T04:06:23;13.35;;;2.65;;
74042;SDS011;62384;53.600;10.040;2023-04-25T04:08:49;14.25;;;3.03;;
74042;SDS011;62384;53.600;10.040;2023-04-25T04:11:14;10.25;;;2.47;;
74042;SDS011;62384;53.600;10.040;2023-04-25T04:13:39;13.52;;;2.55;;
74042;SDS011;62384;53.600;10.040;2023-04-25T04:16:04;13.65;;;2.55;;
74042;SDS011;62384;53.600;10.040;2023-04-25T04:18:30;16.50;;;2.40;;
74042;SDS011;62384;53.600;10.040;2023-04-25T04:20:55;14.45;;;2.30;;
74042;SDS011;62384;53.600;10.040;2023-04-25T04:23:22;12.15;;;2.20;;
74042;SDS011;62384;53.600;10.040;2023-04-25T04:25:48;8.32;;;2.00;;
74042;SDS011;62384;53.600;10.040;2023-04-25T04:28:13;19.15;;;3.00;;
74042;SDS011;62384;53.600;10.040;2023-04-25T04:30:40;11.57;;;2.25;;
74042;SDS011;62384;53.600;10.040;2023-04-25T04:33:06;10.32;;;2.13;;
74042;SDS011;62384;53.600;10.040;2023-04-25T04:35:33;11.50;;;2.45;;
74042;SDS011;62384;53.600;10.040;2023-04-25T04:37:58;20.02;;;2.50;;
74042;SDS011;62384;53.600;10.040;2023-04-25T04:40:23;18.40;;;2.60;;
74042;SDS011;62384;53.600;10.040;2023-04-25T04:42:50;7.13;;;2.22;;
74042;SDS011;62384;53.600;10.040;2023-04-25T04:45:15;13.10;;;2.70;;
74042;SDS011;62384;53.600;10.040;2023-04-25T04:47:41;16.33;;;2.38;;
74042;SDS011;62384;53.600;10.040;2023-04-25T04:50:12;12.82;;;2.42;;
74042;SDS011;62384;53.600;10.040;2023-04-25T04:52:38;12.70;;;2.00;;
74042;SDS011;62384;53.600;10.040;2023-04-25T04:55:04;11.65;;;2.17;;
74042;SDS011;62384;53.600;10.040;2023-04-25T04:57:30;11.13;;;1.98;;
74042;SDS011;62384;53.600;10.040;2023-04-25T04:59:56;17.85;;;2.28;;
74042;SDS011;62384;53.600;10.040;2023-04-25T05:02:21;8.90;;;2.50;;
74042;SDS011;62384;53.600;10.040;2023-04-25T05:04:46;9.38;;;1.80;;
74042;SDS011;62384;53.600;10.040;2023-04-25T05:07:12;10.07;;;1.73;;
74042;SDS011;62384;53.600;10.040;2023-04-25T05:09:37;17.10;;;2.45;;
74042;SDS011;62384;53.600;10.040;2023-04-25T05:12:02;10.55;;;2.00;;
74042;SDS011;62384;53.600;10.040;2023-04-25T05:14:29;7.55;;;1.98;;
74042;SDS011;62384;53.600;10.040;2023-04-25T05:16:56;12.10;;;1.98;;
74042;SDS011;62384;53.600;10.040;2023-04-25T05:19:21;15.25;;;2.47;;
74042;SDS011;62384;53.600;10.040;2023-04-25T05:21:46;8.63;;;2.13;;
74042;SDS011;62384;53.600;10.040;2023-04-25T05:24:11;9.57;;;2.28;;
74042;SDS011;62384;53.600;10.040;2023-04-25T05:26:37;8.20;;;1.95;;
74042;SDS011;62384;53.600;10.040;2023-04-25T05:29:02;9.70;;;1.90;;
74042;SDS011;62384;53.600;10.040;2023-04-25T05:31:28;8.15;;;2.20;;
74042;SDS011;62384;53.600;10.040;2023-04-25T05:33:53;10.48;;;1.77;;
74042;SDS011;62384;53.600;10.040;2023-04-25T05:36:18;14.13;;;2.00;;
74042;SDS011;62384;53.600;10.040;2023-04-25T05:38:44;10.85;;;2.80;;
74042;SDS011;62384;53.600;10.040;2023-04-25T05:41:10;10.30;;;1.95;;
74042;SDS011;62384;53.600;10.040;2023-04-25T05:43:35;10.65;;;2.22;;
74042;SDS011;62384;53.600;10.040;2023-04-25T05:46:00;8.18;;;1.77;;
74042;SDS011;62384;53.600;10.040;2023-04-25T05:48:25;20.10;;;2.78;;
74042;SDS011;62384;53.600;10.040;2023-04-25T05:50:52;11.27;;;1.83;;
74042;SDS011;62384;53.600;10.040;2023-04-25T05:53:18;12.32;;;1.98;;
74042;SDS011;62384;53.600;10.040;2023-04-25T05:55:44;9.35;;;2.42;;
74042;SDS011;62384;53.600;10.040;2023-04-25T05:58:09;11.68;;;2.03;;
74042;SDS011;62384;53.600;10.040;2023-04-25T06:00:35;13.35;;;2.40;;
74042;SDS011;62384;53.600;10.040;2023-04-25T06:03:00;7.32;;;2.10;;
74042;SDS011;62384;53.600;10.040;2023-04-25T06:05:26;14.27;;;2.33;;
74042;SDS011;62384;53.600;10.040;2023-04-25T06:07:53;7.60;;;2.05;;
74042;SDS011;62384;53.600;10.040;2023-04-25T06:10:18;9.00;;;2.42;;
74042;SDS011;62384;53.600;10.040;2023-04-25T06:12:43;8.65;;;1.65;;
74042;SDS011;62384;53.600;10.040;2023-04-25T06:15:09;16.48;;;2.33;;
74042;SDS011;62384;53.600;10.040;2023-04-25T06:17:35;11.00;;;3.45;;
74042;SDS011;62384;53.600;10.040;2023-04-25T06:20:00;9.43;;;2.20;;
74042;SDS011;62384;53.600;10.040;2023-04-25T06:22:25;9.77;;;2.15;;
74042;SDS011;62384;53.600;10.040;2023-04-25T06:24:50;10.55;;;1.75;;
74042;SDS011;62384;53.600;10.040;2023-04-25T06:27:16;8.23;;;1.95;;
74042;SDS011;62384;53.600;10.040;2023-04-25T06:29:41;10.32;;;2.20;;
74042;SDS011;62384;53.600;10.040;2023-04-25T06:32:06;11.50;;;2.20;;
74042;SDS011;62384;53.600;10.040;2023-04-25T06:34:32;18.20;;;2.40;;
74042;SDS011;62384;53.600;10.040;2023-04-25T06:36:57;12.98;;;2.13;;
74042;SDS011;62384;53.600;10.040;2023-04-25T06:39:22;11.57;;;1.55;;
74042;SDS011;62384;53.600;10.040;2023-04-25T06:41:49;14.43;;;2.40;;
74042;SDS011;62384;53.600;10.040;2023-04-25T06:44:14;9.15;;;1.70;;
74042;SDS011;62384;53.600;10.040;2023-04-25T06:46:40;12.70;;;1.83;;
74042;SDS011;62384;53.600;10.040;2023-04-25T06:49:05;9.20;;;2.63;;
74042;SDS011;62384;53.600;10.040;2023-04-25T06:51:30;11.40;;;1.67;;
74042;SDS011;62384;53.600;10.040;2023-04-25T06:53:56;9.68;;;1.83;;
74042;SDS011;62384;53.600;10.040;2023-04-25T06:56:22;14.90;;;1.55;;
74042;SDS011;62384;53.600;10.040;2023-04-25T06:58:48;10.82;;;2.20;;
74042;SDS011;62384;53.600;10.040;2023-04-25T07:01:13;11.13;;;2.20;;
74042;SDS011;62384;53.600;10.040;2023-04-25T07:03:39;7.65;;;1.55;;
74042;SDS011;62384;53.600;10.040;2023-04-25T07:06:04;11.07;;;2.65;;
74042;SDS011;62384;53.600;10.040;2023-04-25T07:08:30;8.82;;;1.70;;
74042;SDS011;62384;53.600;10.040;2023-04-25T07:10:55;6.43;;;1.67;;
74042;SDS011;62384;53.600;10.040;2023-04-25T07:13:20;11.45;;;2.88;;
74042;SDS011;62384;53.600;10.040;2023-04-25T07:15:46;10.68;;;2.10;;
74042;SDS011;62384;53.600;10.040;2023-04-25T07:18:13;8.40;;;1.95;;
74042;SDS011;62384;53.600;10.040;2023-04-25T07:20:38;14.02;;;1.88;;
74042;SDS011;62384;53.600;10.040;2023-04-25T07:23:03;8.95;;;1.50;;
74042;SDS011;62384;53.600;10.040;2023-04-25T07:25:29;9.85;;;1.58;;
74042;SDS011;62384;53.600;10.040;2023-04-25T07:27:56;6.28;;;1.83;;
74042;SDS011;62384;53.600;10.040;2023-04-25T07:30:22;6.40;;;1.98;;
74042;SDS011;62384;53.600;10.040;2023-04-25T07:32:48;9.07;;;1.70;;
74042;SDS011;62384;53.600;10.040;2023-04-25T07:35:13;7.97;;;1.65;;
74042;SDS011;62384;53.600;10.040;2023-04-25T07:37:39;7.78;;;1.60;;
74042;SDS011;62384;53.600;10.040;2023-04-25T07:40:07;7.95;;;1.77;;
74042;SDS011;62384;53.600;10.040;2023-04-25T07:42:33;6.78;;;1.20;;
74042;SDS011;62384;53.600;10.040;2023-04-25T07:44:59;7.78;;;1.30;;
74042;SDS011;62384;53.600;10.040;2023-04-25T07:47:25;6.47;;;1.30;;
74042;SDS011;62384;53.600;10.040;2023-04-25T07:49:50;8.27;;;1.35;;
74042;SDS011;62384;53.600;10.040;2023-04-25T07:52:16;5.28;;;1.20;;
74042;SDS011;62384;53.600;10.040;2023-04-25T07:54:41;8.82;;;1.20;;
74042;SDS011;62384;53.600;10.040;2023-04-25T07:57:06;9.20;;;1.48;;
74042;SDS011;62384;53.600;10.040;2023-04-25T07:59:32;10.32;;;1.92;;
74042;SDS011;62384;53.600;10.040;2023-04-25T08:01:57;10.45;;;1.98;;
74042;SDS011;62384;53.600;10.040;2023-04-25T08:04:23;11.35;;;1.80;;
74042;SDS011;62384;53.600;10.040;2023-04-25T08:06:48;8.10;;;1.30;;
74042;SDS011;62384;53.600;10.040;2023-04-25T08:09:13;8.65;;;2.42;;
74042;SDS011;62384;53.600;10.040;2023-04-25T08:11:39;7.88;;;1.58;;
74042;SDS011;62384;53.600;10.040;2023-04-25T08:14:04;6.18;;;2.15;;
74042;SDS011;62384;53.600;10.040;2023-04-25T08:16:30;13.15;;;1.63;;
74042;SDS011;62384;53.600;10.040;2023-04-25T08:18:56;5.90;;;1.33;;
74042;SDS011;62384;53.600;10.040;2023-04-25T08:21:21;5.80;;;1.17;;
74042;SDS011;62384;53.600;10.040;2023-04-25T08:23:46;6.32;;;1.30;;
74042;SDS011;62384;53.600;10.040;2023-04-25T08:26:11;6.40;;;1.42;;
74042;SDS011;62384;53.600;10.040;2023-04-25T08:28:37;7.25;;;0.95;;
74042;SDS011;62384;53.600;10.040;2023-04-25T08:31:03;4.40;;;0.90;;
74042;SDS011;62384;53.600;10.040;2023-04-25T08:33:28;7.25;;;1.20;;
74042;SDS011;62384;53.600;10.040;2023-04-25T08:35:54;5.57;;;1.27;;
74042;SDS011;62384;53.600;10.040;2023-04-25T08:38:19;4.03;;;1.02;;
74042;SDS011;62384;53.600;10.040;2023-04-25T08:40:44;8.88;;;0.93;;
74042;SDS011;62384;53.600;10.040;2023-04-25T08:43:15;5.95;;;1.20;;
74042;SDS011;62384;53.600;10.040;2023-04-25T08:45:43;11.13;;;1.70;;
74042;SDS011;62384;53.600;10.040;2023-04-25T08:48:13;5.30;;;1.30;;
74042;SDS011;62384;53.600;10.040;2023-04-25T08:50:58;10.93;;;1.50;;
74042;SDS011;62384;53.600;10.040;2023-04-25T08:53:29;10.07;;;1.73;;
74042;SDS011;62384;53.600;10.040;2023-04-25T08:55:57;8.27;;;1.42;;
74042;SDS011;62384;53.600;10.040;2023-04-25T08:58:23;5.53;;;1.08;;
74042;SDS011;62384;53.600;10.040;2023-04-25T09:00:49;5.85;;;1.33;;
74042;SDS011;62384;53.600;10.040;2023-04-25T09:03:15;7.68;;;2.20;;
74042;SDS011;62384;53.600;10.040;2023-04-25T09:05:41;11.63;;;1.30;;
74042;SDS011;62384;53.600;10.040;2023-04-25T09:08:07;5.20;;;1.48;;
74042;SDS011;62384;53.600;10.040;2023-04-25T09:10:33;6.45;;;1.02;;
74042;SDS011;62384;53.600;10.040;2023-04-25T09:15:31;5.57;;;1.15;;
74042;SDS011;62384;53.600;10.040;2023-04-25T09:17:57;5.35;;;0.98;;
74042;SDS011;62384;53.600;10.040;2023-04-25T09:20:23;4.38;;;0.85;;
74042;SDS011;62384;53.600;10.040;2023-04-25T09:22:49;4.75;;;1.20;;
74042;SDS011;62384;53.600;10.040;2023-04-25T09:25:33;7.22;;;1.60;;
74042;SDS011;62384;53.600;10.040;2023-04-25T09:28:00;6.35;;;0.70;;
74042;SDS011;62384;53.600;10.040;2023-04-25T09:30:29;4.75;;;0.90;;
74042;SDS011;62384;53.600;10.040;2023-04-25T09:32:56;4.00;;;1.00;;
74042;SDS011;62384;53.600;10.040;2023-04-25T09:35:23;6.68;;;1.17;;
74042;SDS011;62384;53.600;10.040;2023-04-25T09:37:49;8.70;;;2.00;;
74042;SDS011;62384;53.600;10.040;2023-04-25T09:40:15;9.35;;;1.42;;
74042;SDS011;62384;53.600;10.040;2023-04-25T09:42:42;8.93;;;1.02;;
74042;SDS011;62384;53.600;10.040;2023-04-25T09:45:08;10.77;;;1.17;;
74042;SDS011;62384;53.600;10.040;2023-04-25T09:47:37;3.13;;;0.98;;
74042;SDS011;62384;53.600;10.040;2023-04-25T09:50:03;8.15;;;2.25;;
74042;SDS011;62384;53.600;10.040;2023-04-25T09:52:40;6.13;;;0.98;;
74042;SDS011;62384;53.600;10.040;2023-04-25T09:55:06;7.95;;;1.45;;
74042;SDS011;62384;53.600;10.040;2023-04-25T09:57:33;5.20;;;1.17;;
74042;SDS011;62384;53.600;10.040;2023-04-25T10:00:00;8.13;;;1.20;;
74042;SDS011;62384;53.600;10.040;2023-04-25T10:02:26;5.45;;;1.20;;
74042;SDS011;62384;53.600;10.040;2023-04-25T10:04:53;5.43;;;1.27;;
74042;SDS011;62384;53.600;10.040;2023-04-25T10:07:22;5.13;;;1.30;;
74042;SDS011;62384;53.600;10.040;2023-04-25T10:09:52;7.18;;;1.33;;
74042;SDS011;62384;53.600;10.040;2023-04-25T10:12:24;8.07;;;1.48;;
74042;SDS011;62384;53.600;10.040;2023-04-25T10:14:49;8.05;;;1.00;;
74042;SDS011;62384;53.600;10.040;2023-04-25T10:17:15;8.63;;;0.90;;
74042;SDS011;62384;53.600;10.040;2023-04-25T10:19:42;6.40;;;1.05;;
74042;SDS011;62384;53.600;10.040;2023-04-25T10:24:45;5.32;;;0.90;;
74042;SDS011;62384;53.600;10.040;2023-04-25T10:27:11;4.50;;;0.82;;
74042;SDS011;62384;53.600;10.040;2023-04-25T10:29:37;4.05;;;0.90;;
74042;SDS011;62384;53.600;10.040;2023-04-25T10:32:02;6.80;;;1.13;;
74042;SDS011;62384;53.600;10.040;2023-04-25T10:34:38;2.90;;;0.65;;
74042;SDS011;62384;53.600;10.040;2023-04-25T10:37:04;3.80;;;0.88;;
74042;SDS011;62384;53.600;10.040;2023-04-25T10:39:33;7.00;;;0.70;;
74042;SDS011;62384;53.600;10.040;2023-04-25T10:41:58;7.30;;;0.88;;
74042;SDS011;62384;53.600;10.040;2023-04-25T10:44:30;5.13;;;0.82;;
74042;SDS011;62384;53.600;10.040;2023-04-25T10:46:55;4.45;;;1.05;;
74042;SDS011;62384;53.600;10.040;2023-04-25T10:54:52;6.18;;;0.60;;
74042;SDS011;62384;53.600;10.040;2023-04-25T11:00:07;3.80;;;1.17;;
74042;SDS011;62384;53.600;10.040;2023-04-25T11:02:46;3.45;;;0.82;;
74042;SDS011;62384;53.600;10.040;2023-04-25T11:05:19;10.82;;;1.92;;
74042;SDS011;62384;53.600;10.040;2023-04-25T11:07:54;3.55;;;0.70;;
74042;SDS011;62384;53.600;10.040;2023-04-25T11:12:55;6.32;;;0.70;;
74042;SDS011;62384;53.600;10.040;2023-04-25T11:15:21;3.50;;;0.95;;
74042;SDS011;62384;53.600;10.040;2023-04-25T11:17:46;1.88;;;0.82;;
74042;SDS011;62384;53.600;10.040;2023-04-25T11:20:12;1.85;;;0.57;;
74042;SDS011;62384;53.600;10.040;2023-04-25T11:22:39;5.68;;;0.73;;
74042;SDS011;62384;53.600;10.040;2023-04-25T11:25:06;2.70;;;0.90;;
74042;SDS011;62384;53.600;10.040;2023-04-25T11:27:32;2.08;;;0.70;;
74042;SDS011;62384;53.600;10.040;2023-04-25T11:29:58;3.05;;;0.50;;
74042;SDS011;62384;53.600;10.040;2023-04-25T11:32:23;3.38;;;1.08;;
74042;SDS011;62384;53.600;10.040;2023-04-25T11:34:48;9.23;;;0.95;;
74042;SDS011;62384;53.600;10.040;2023-04-25T11:37:14;6.28;;;0.80;;
74042;SDS011;62384;53.600;10.040;2023-04-25T11:39:42;7.63;;;1.15;;
74042;SDS011;62384;53.600;10.040;2023-04-25T11:42:09;3.65;;;0.57;;
74042;SDS011;62384;53.600;10.040;2023-04-25T11:44:35;7.60;;;0.90;;
74042;SDS011;62384;53.600;10.040;2023-04-25T11:47:02;4.15;;;1.00;;
74042;SDS011;62384;53.600;10.040;2023-04-25T11:49:30;4.45;;;0.70;;
74042;SDS011;62384;53.600;10.040;2023-04-25T11:51:56;5.45;;;0.82;;
74042;SDS011;62384;53.600;10.040;2023-04-25T11:54:21;3.85;;;1.00;;
74042;SDS011;62384;53.600;10.040;2023-04-25T11:56:47;7.72;;;1.40;;
74042;SDS011;62384;53.600;10.040;2023-04-25T11:59:13;4.63;;;0.63;;
74042;SDS011;62384;53.600;10.040;2023-04-25T12:01:39;5.80;;;0.55;;
74042;SDS011;62384;53.600;10.040;2023-04-25T12:04:16;2.53;;;0.70;;
74042;SDS011;62384;53.600;10.040;2023-04-25T12:06:49;4.22;;;0.68;;
74042;SDS011;62384;53.600;10.040;2023-04-25T12:09:27;8.07;;;1.13;;
74042;SDS011;62384;53.600;10.040;2023-04-25T12:11:57;3.45;;;0.80;;
74042;SDS011;62384;53.600;10.040;2023-04-25T12:14:25;1.75;;;0.50;;
74042;SDS011;62384;53.600;10.040;2023-04-25T12:16:56;2.63;;;0.55;;
74042;SDS011;62384;53.600;10.040;2023-04-25T12:19:22;1.55;;;0.32;;
74042;SDS011;62384;53.600;10.040;2023-04-25T12:21:49;0.63;;;0.40;;
74042;SDS011;62384;53.600;10.040;2023-04-25T12:24:16;3.92;;;0.40;;
74042;SDS011;62384;53.600;10.040;2023-04-25T12:27:02;2.92;;;0.40;;
74042;SDS011;62384;53.600;10.040;2023-04-25T12:29:29;3.90;;;0.85;;
74042;SDS011;62384;53.600;10.040;2023-04-25T12:31:56;1.20;;;0.40;;
74042;SDS011;62384;53.600;10.040;2023-04-25T12:34:22;2.88;;;0.30;;
74042;SDS011;62384;53.600;10.040;2023-04-25T12:36:48;2.58;;;0.80;;
74042;SDS011;62384;53.600;10.040;2023-04-25T12:39:16;3.47;;;0.55;;
74042;SDS011;62384;53.600;10.040;2023-04-25T12:41:42;2.08;;;0.50;;
74042;SDS011;62384;53.600;10.040;2023-04-25T12:44:08;1.83;;;0.50;;
74042;SDS011;62384;53.600;10.040;2023-04-25T12:46:34;6.53;;;0.80;;
74042;SDS011;62384;53.600;10.040;2023-04-25T12:48:59;5.95;;;1.00;;
74042;SDS011;62384;53.600;10.040;2023-04-25T12:51:25;5.85;;;1.13;;
74042;SDS011;62384;53.600;10.040;2023-04-25T12:53:52;2.63;;;0.60;;
74042;SDS011;62384;53.600;10.040;2023-04-25T12:56:18;5.82;;;0.90;;
74042;SDS011;62384;53.600;10.040;2023-04-25T12:58:43;1.45;;;0.50;;
74042;SDS011;62384;53.600;10.040;2023-04-25T13:01:09;1.90;;;0.60;;
74042;SDS011;62384;53.600;10.040;2023-04-25T13:03:36;2.88;;;0.47;;
74042;SDS011;62384;53.600;10.040;2023-04-25T13:06:02;2.22;;;0.63;;
74042;SDS011;62384;53.600;10.040;2023-04-25T13:08:27;5.03;;;0.93;;
74042;SDS011;62384;53.600;10.040;2023-04-25T13:10:52;7.80;;;0.80;;
74042;SDS011;62384;53.600;10.040;2023-04-25T13:13:18;4.40;;;0.60;;
74042;SDS011;62384;53.600;10.040;2023-04-25T13:15:43;9.38;;;1.23;;
74042;SDS011;62384;53.600;10.040;2023-04-25T13:18:08;3.42;;;0.85;;
74042;SDS011;62384;53.600;10.040;2023-04-25T13:20:34;3.92;;;0.60;;
74042;SDS011;62384;53.600;10.040;2023-04-25T13:22:59;4.13;;;0.60;;
74042;SDS011;62384;53.600;10.040;2023-04-25T13:25:24;5.38;;;0.90;;
74042;SDS011;62384;53.600;10.040;2023-04-25T13:27:51;3.92;;;0.77;;
74042;SDS011;62384;53.600;10.040;2023-04-25T13:30:17;5.85;;;1.00;;
74042;SDS011;62384;53.600;10.040;2023-04-25T13:32:42;3.55;;;0.93;;
74042;SDS011;62384;53.600;10.040;2023-04-25T13:35:09;6.95;;;0.70;;
74042;SDS011;62384;53.600;10.040;2023-04-25T13:37:37;6.40;;;0.85;;
74042;SDS011;62384;53.600;10.040;2023-04-25T13:40:03;4.13;;;0.77;;
74042;SDS011;62384;53.600;10.040;2023-04-25T13:42:31;4.50;;;1.10;;
74042;SDS011;62384;53.600;10.040;2023-04-25T13:44:57;5.90;;;1.10;;
74042;SDS011;62384;53.600;10.040;2023-04-25T13:47:22;3.53;;;0.80;;
74042;SDS011;62384;53.600;10.040;2023-04-25T13:49:48;6.95;;;0.93;;
74042;SDS011;62384;53.600;10.040;2023-04-25T13:52:14;7.05;;;1.00;;
74042;SDS011;62384;53.600;10.040;2023-04-25T13:54:40;7.30;;;1.33;;
74042;SDS011;62384;53.600;10.040;2023-04-25T13:57:05;9.98;;;1.10;;
74042;SDS011;62384;53.600;10.040;2023-04-25T13:59:31;4.78;;;0.95;;
74042;SDS011;62384;53.600;10.040;2023-04-25T14:01:57;3.65;;;1.05;;
74042;SDS011;62384;53.600;10.040;2023-04-25T14:04:23;1.98;;;0.50;;
74042;SDS011;62384;53.600;10.040;2023-04-25T14:06:48;1.70;;;0.68;;
74042;SDS011;62384;53.600;10.040;2023-04-25T14:09:13;4.97;;;1.08;;
74042;SDS011;62384;53.600;10.040;2023-04-25T14:11:40;3.92;;;0.95;;
74042;SDS011;62384;53.600;10.040;2023-04-25T14:14:05;5.72;;;0.77;;
74042;SDS011;62384;53.600;10.040;2023-04-25T14:16:30;7.93;;;1.05;;
74042;SDS011;62384;53.600;10.040;2023-04-25T14:18:58;4.00;;;1.17;;
74042;SDS011;62384;53.600;10.040;2023-04-25T14:21:24;3.88;;;0.70;;
74042;SDS011;62384;53.600;10.040;2023-04-25T14:23:50;5.07;;;0.82;;
74042;SDS011;62384;53.600;10.040;2023-04-25T14:26:15;5.63;;;1.38;;
74042;SDS011;62384;53.600;10.040;2023-04-25T14:28:41;2.90;;;0.68;;
74042;SDS011;62384;53.600;10.040;2023-04-25T14:31:06;3.60;;;0.65;;
74042;SDS011;62384;53.600;10.040;2023-04-25T14:33:32;5.88;;;0.90;;
74042;SDS011;62384;53.600;10.040;2023-04-25T14:35:57;7.57;;;1.13;;
74042;SDS011;62384;53.600;10.040;2023-04-25T14:38:22;4.85;;;0.85;;